sensor_id;sensor_type;location;lat;lon;timestamp;P1;durP1;ratioP1;P2;durP2;ratioP2
29432;SDS011;16405;53.964;13.448;2022-08-06T00:00:00;14.65;;;2.90;;
29432;SDS011;16405;53.964;13.448;2022-08-06T00:02:36;15.90;;;2.80;;
29432;SDS011;16405;53.964;13.448;2022-08-06T00:07:28;13.75;;;2.08;;
29432;SDS011;16405;53.964;13.448;2022-08-06T00:12:25;9.75;;;1.95;;
29432;SDS011;16405;53.964;13.448;2022-08-06T00:14:56;14.68;;;2.05;;
29432;SDS011;16405;53.964;13.448;2022-08-06T00:17:22;13.95;;;1.60;;
29432;SDS011;16405;53.964;13.448;2022-08-06T00:19:51;4.13;;;1.20;;
29432;SDS011;16405;53.964;13.448;2022-08-06T00:22:16;9.32;;;1.35;;
29432;SDS011;16405;53.964;13.448;2022-08-06T00:27:08;11.55;;;1.15;;
29432;SDS011;16405;53.964;13.448;2022-08-06T00:31:59;4.93;;;1.08;;
29432;SDS011;16405;53.964;13.448;2022-08-06T00:36:50;7.60;;;1.27;;
29432;SDS011;16405;53.964;13.448;2022-08-06T00:39:23;4.40;;;0.70;;
29432;SDS011;16405;53.964;13.448;2022-08-06T00:41:49;9.18;;;1.20;;
29432;SDS011;16405;53.964;13.448;2022-08-06T00:44:15;2.33;;;0.60;;
29432;SDS011;16405;53.964;13.448;2022-08-06T00:46:41;8.00;;;0.90;;
29432;SDS011;16405;53.964;13.448;2022-08-06T00:49:07;5.95;;;1.27;;
29432;SDS011;16405;53.964;13.448;2022-08-06T00:51:36;6.53;;;1.08;;
29432;SDS011;16405;53.964;13.448;2022-08-06T00:54:02;6.25;;;1.00;;
29432;SDS011;16405;53.964;13.448;2022-08-06T00:56:28;2.45;;;0.68;;
29432;SDS011;16405;53.964;13.448;2022-08-06T00:58:54;4.63;;;1.02;;
29432;SDS011;16405;53.964;13.448;2022-08-06T01:03:45;6.90;;;1.02;;
29432;SDS011;16405;53.964;13.448;2022-08-06T01:08:39;8.13;;;1.13;;
29432;SDS011;16405;53.964;13.448;2022-08-06T01:11:05;3.58;;;0.70;;
29432;SDS011;16405;53.964;13.448;2022-08-06T01:13:31;6.35;;;1.13;;
29432;SDS011;16405;53.964;13.448;2022-08-06T01:27:42;9.25;;;1.10;;
29432;SDS011;16405;53.964;13.448;2022-08-06T01:30:18;4.97;;;0.95;;
29432;SDS011;16405;53.964;13.448;2022-08-06T01:32:51;10.55;;;1.15;;
29432;SDS011;16405;53.964;13.448;2022-08-06T01:35:24;9.93;;;1.58;;
29432;SDS011;16405;53.964;13.448;2022-08-06T01:38:07;6.20;;;0.90;;
29432;SDS011;16405;53.964;13.448;2022-08-06T01:40:50;11.73;;;1.23;;
29432;SDS011;16405;53.964;13.448;2022-08-06T01:43:25;18.45;;;1.50;;
29432;SDS011;16405;53.964;13.448;2022-08-06T01:45:53;16.33;;;1.98;;
29432;SDS011;16405;53.964;13.448;2022-08-06T01:48:27;6.95;;;1.70;;
29432;SDS011;16405;53.964;13.448;2022-08-06T01:50:57;7.22;;;1.63;;
29432;SDS011;16405;53.964;13.448;2022-08-06T01:53:29;17.02;;;2.25;;
29432;SDS011;16405;53.964;13.448;2022-08-06T01:56:00;13.82;;;1.80;;
29432;SDS011;16405;53.964;13.448;2022-08-06T01:58:34;13.02;;;1.52;;
29432;SDS011;16405;53.964;13.448;2022-08-06T02:01:05;9.43;;;1.90;;
29432;SDS011;16405;53.964;13.448;2022-08-06T02:03:42;21.88;;;2.22;;
29432;SDS011;16405;53.964;13.448;2022-08-06T02:06:30;10.55;;;2.25;;
29432;SDS011;16405;53.964;13.448;2022-08-06T02:09:04;10.80;;;2.30;;
29432;SDS011;16405;53.964;13.448;2022-08-06T02:11:36;8.10;;;2.35;;
29432;SDS011;16405;53.964;13.448;2022-08-06T02:14:04;13.10;;;2.72;;
29432;SDS011;16405;53.964;13.448;2022-08-06T02:16:36;7.30;;;2.45;;
29432;SDS011;16405;53.964;13.448;2022-08-06T02:19:06;9.15;;;2.45;;
29432;SDS011;16405;53.964;13.448;2022-08-06T02:21:36;11.25;;;2.88;;
29432;SDS011;16405;53.964;13.448;2022-08-06T02:24:08;10.25;;;2.78;;
29432;SDS011;16405;53.964;13.448;2022-08-06T02:26:36;13.95;;;2.90;;
29432;SDS011;16405;53.964;13.448;2022-08-06T02:29:06;10.93;;;2.50;;
29432;SDS011;16405;53.964;13.448;2022-08-06T02:31:40;6.53;;;2.90;;
29432;SDS011;16405;53.964;13.448;2022-08-06T02:34:08;11.07;;;3.10;;
29432;SDS011;16405;53.964;13.448;2022-08-06T02:36:44;13.18;;;3.80;;
29432;SDS011;16405;53.964;13.448;2022-08-06T02:39:26;8.57;;;3.50;;
29432;SDS011;16405;53.964;13.448;2022-08-06T02:42:03;17.85;;;3.67;;
29432;SDS011;16405;53.964;13.448;2022-08-06T02:44:55;12.98;;;3.35;;
29432;SDS011;16405;53.964;13.448;2022-08-06T02:47:35;21.65;;;4.38;;
29432;SDS011;16405;53.964;13.448;2022-08-06T02:50:16;18.10;;;3.92;;
29432;SDS011;16405;53.964;13.448;2022-08-06T02:52:48;23.10;;;4.20;;
29432;SDS011;16405;53.964;13.448;2022-08-06T02:55:21;15.45;;;4.10;;
29432;SDS011;16405;53.964;13.448;2022-08-06T02:58:00;11.93;;;3.80;;
29432;SDS011;16405;53.964;13.448;2022-08-06T03:00:38;12.52;;;3.33;;
29432;SDS011;16405;53.964;13.448;2022-08-06T03:03:07;9.38;;;3.70;;
29432;SDS011;16405;53.964;13.448;2022-08-06T03:05:45;15.05;;;3.20;;
29432;SDS011;16405;53.964;13.448;2022-08-06T03:08:14;10.38;;;2.80;;
29432;SDS011;16405;53.964;13.448;2022-08-06T03:10:52;10.95;;;3.22;;
29432;SDS011;16405;53.964;13.448;2022-08-06T03:13:19;14.13;;;3.58;;
29432;SDS011;16405;53.964;13.448;2022-08-06T03:15:50;21.60;;;4.88;;
29432;SDS011;16405;53.964;13.448;2022-08-06T03:18:18;12.95;;;3.53;;
29432;SDS011;16405;53.964;13.448;2022-08-06T03:20:46;14.10;;;3.72;;
29432;SDS011;16405;53.964;13.448;2022-08-06T03:23:13;14.38;;;3.20;;
29432;SDS011;16405;53.964;13.448;2022-08-06T03:25:43;10.00;;;3.58;;
29432;SDS011;16405;53.964;13.448;2022-08-06T03:28:11;17.95;;;4.50;;
29432;SDS011;16405;53.964;13.448;2022-08-06T03:30:39;17.08;;;4.20;;
29432;SDS011;16405;53.964;13.448;2022-08-06T03:33:12;15.90;;;3.63;;
29432;SDS011;16405;53.964;13.448;2022-08-06T03:35:40;10.82;;;3.38;;
29432;SDS011;16405;53.964;13.448;2022-08-06T03:38:08;13.27;;;3.65;;
29432;SDS011;16405;53.964;13.448;2022-08-06T03:40:38;13.15;;;3.40;;
29432;SDS011;16405;53.964;13.448;2022-08-06T03:43:08;10.32;;;3.53;;
29432;SDS011;16405;53.964;13.448;2022-08-06T03:45:36;19.48;;;3.40;;
29432;SDS011;16405;53.964;13.448;2022-08-06T03:48:11;13.75;;;3.58;;
29432;SDS011;16405;53.964;13.448;2022-08-06T03:50:42;11.80;;;3.45;;
29432;SDS011;16405;53.964;13.448;2022-08-06T03:53:16;13.05;;;3.65;;
29432;SDS011;16405;53.964;13.448;2022-08-06T03:55:50;8.00;;;3.22;;
29432;SDS011;16405;53.964;13.448;2022-08-06T03:58:20;10.27;;;3.35;;
29432;SDS011;16405;53.964;13.448;2022-08-06T04:00:51;22.23;;;3.47;;
29432;SDS011;16405;53.964;13.448;2022-08-06T04:03:25;8.60;;;3.30;;
29432;SDS011;16405;53.964;13.448;2022-08-06T04:05:51;11.60;;;2.75;;
29432;SDS011;16405;53.964;13.448;2022-08-06T04:08:21;8.15;;;2.70;;
29432;SDS011;16405;53.964;13.448;2022-08-06T04:10:50;12.15;;;3.58;;
29432;SDS011;16405;53.964;13.448;2022-08-06T04:13:19;12.20;;;3.13;;
29432;SDS011;16405;53.964;13.448;2022-08-06T04:15:47;6.85;;;3.10;;
29432;SDS011;16405;53.964;13.448;2022-08-06T04:18:25;14.88;;;3.83;;
29432;SDS011;16405;53.964;13.448;2022-08-06T04:20:59;8.63;;;3.03;;
29432;SDS011;16405;53.964;13.448;2022-08-06T04:23:29;9.90;;;3.13;;
29432;SDS011;16405;53.964;13.448;2022-08-06T04:26:01;9.50;;;2.25;;
29432;SDS011;16405;53.964;13.448;2022-08-06T04:28:29;7.82;;;1.95;;
29432;SDS011;16405;53.964;13.448;2022-08-06T04:30:59;9.35;;;1.63;;
29432;SDS011;16405;53.964;13.448;2022-08-06T04:33:29;5.28;;;1.77;;
29432;SDS011;16405;53.964;13.448;2022-08-06T04:35:58;9.07;;;1.20;;
29432;SDS011;16405;53.964;13.448;2022-08-06T04:38:30;3.60;;;1.02;;
29432;SDS011;16405;53.964;13.448;2022-08-06T04:40:58;3.67;;;1.15;;
29432;SDS011;16405;53.964;13.448;2022-08-06T04:43:25;11.20;;;1.20;;
29432;SDS011;16405;53.964;13.448;2022-08-06T04:45:52;4.97;;;1.15;;
29432;SDS011;16405;53.964;13.448;2022-08-06T04:48:18;3.35;;;0.82;;
29432;SDS011;16405;53.964;13.448;2022-08-06T04:50:48;6.57;;;1.20;;
29432;SDS011;16405;53.964;13.448;2022-08-06T04:53:16;3.92;;;0.93;;
29432;SDS011;16405;53.964;13.448;2022-08-06T04:55:43;4.28;;;0.98;;
29432;SDS011;16405;53.964;13.448;2022-08-06T04:58:14;2.25;;;0.85;;
29432;SDS011;16405;53.964;13.448;2022-08-06T05:00:42;8.63;;;1.00;;
29432;SDS011;16405;53.964;13.448;2022-08-06T05:03:12;3.92;;;0.85;;
29432;SDS011;16405;53.964;13.448;2022-08-06T05:05:57;4.45;;;0.70;;
29432;SDS011;16405;53.964;13.448;2022-08-06T05:08:35;3.70;;;1.00;;
29432;SDS011;16405;53.964;13.448;2022-08-06T05:11:12;5.75;;;0.85;;
29432;SDS011;16405;53.964;13.448;2022-08-06T05:13:54;6.10;;;0.82;;
29432;SDS011;16405;53.964;13.448;2022-08-06T05:16:26;3.15;;;0.80;;
29432;SDS011;16405;53.964;13.448;2022-08-06T05:18:57;6.55;;;0.73;;
29432;SDS011;16405;53.964;13.448;2022-08-06T05:21:31;5.15;;;0.95;;
29432;SDS011;16405;53.964;13.448;2022-08-06T05:24:01;3.35;;;0.80;;
29432;SDS011;16405;53.964;13.448;2022-08-06T05:26:31;8.82;;;0.90;;
29432;SDS011;16405;53.964;13.448;2022-08-06T05:28:59;4.00;;;0.73;;
29432;SDS011;16405;53.964;13.448;2022-08-06T05:31:29;2.72;;;0.77;;
29432;SDS011;16405;53.964;13.448;2022-08-06T05:34:00;5.22;;;0.95;;
29432;SDS011;16405;53.964;13.448;2022-08-06T05:36:29;3.00;;;0.73;;
29432;SDS011;16405;53.964;13.448;2022-08-06T05:38:55;4.72;;;0.93;;
29432;SDS011;16405;53.964;13.448;2022-08-06T05:41:21;3.35;;;0.60;;
29432;SDS011;16405;53.964;13.448;2022-08-06T05:43:55;5.80;;;0.90;;
29432;SDS011;16405;53.964;13.448;2022-08-06T05:46:21;4.10;;;0.75;;
29432;SDS011;16405;53.964;13.448;2022-08-06T05:54:52;4.15;;;0.80;;
29432;SDS011;16405;53.964;13.448;2022-08-06T05:58:02;4.32;;;0.77;;
29432;SDS011;16405;53.964;13.448;2022-08-06T06:00:53;4.15;;;1.10;;
29432;SDS011;16405;53.964;13.448;2022-08-06T06:03:22;4.53;;;0.90;;
29432;SDS011;16405;53.964;13.448;2022-08-06T06:05:48;4.28;;;0.68;;
29432;SDS011;16405;53.964;13.448;2022-08-06T06:08:15;4.78;;;0.75;;
29432;SDS011;16405;53.964;13.448;2022-08-06T06:10:44;5.63;;;0.75;;
29432;SDS011;16405;53.964;13.448;2022-08-06T06:13:13;6.57;;;0.98;;
29432;SDS011;16405;53.964;13.448;2022-08-06T06:15:42;7.20;;;0.60;;
29432;SDS011;16405;53.964;13.448;2022-08-06T06:18:57;3.78;;;0.52;;
29432;SDS011;16405;53.964;13.448;2022-08-06T06:27:16;7.10;;;0.70;;
29432;SDS011;16405;53.964;13.448;2022-08-06T06:32:37;3.00;;;0.68;;
29432;SDS011;16405;53.964;13.448;2022-08-06T06:35:30;6.93;;;0.65;;
29432;SDS011;16405;53.964;13.448;2022-08-06T06:41:18;7.78;;;0.90;;
29432;SDS011;16405;53.964;13.448;2022-08-06T06:52:23;1.83;;;0.50;;
29432;SDS011;16405;53.964;13.448;2022-08-06T06:54:57;7.65;;;0.70;;
29432;SDS011;16405;53.964;13.448;2022-08-06T06:57:36;6.68;;;0.70;;
29432;SDS011;16405;53.964;13.448;2022-08-06T07:00:12;3.15;;;0.50;;
29432;SDS011;16405;53.964;13.448;2022-08-06T07:02:39;3.92;;;0.60;;
29432;SDS011;16405;53.964;13.448;2022-08-06T07:05:07;5.20;;;0.88;;
29432;SDS011;16405;53.964;13.448;2022-08-06T07:07:39;3.22;;;0.68;;
29432;SDS011;16405;53.964;13.448;2022-08-06T07:10:07;4.32;;;0.82;;
29432;SDS011;16405;53.964;13.448;2022-08-06T07:12:44;1.98;;;0.40;;
29432;SDS011;16405;53.964;13.448;2022-08-06T07:15:11;2.30;;;0.60;;
29432;SDS011;16405;53.964;13.448;2022-08-06T07:17:45;10.75;;;0.73;;
29432;SDS011;16405;53.964;13.448;2022-08-06T07:20:12;3.08;;;0.63;;
29432;SDS011;16405;53.964;13.448;2022-08-06T07:22:40;4.70;;;0.75;;
29432;SDS011;16405;53.964;13.448;2022-08-06T07:25:11;8.02;;;0.80;;
29432;SDS011;16405;53.964;13.448;2022-08-06T07:27:40;2.38;;;0.47;;
29432;SDS011;16405;53.964;13.448;2022-08-06T07:30:14;6.30;;;0.52;;
29432;SDS011;16405;53.964;13.448;2022-08-06T07:32:43;5.57;;;0.95;;
29432;SDS011;16405;53.964;13.448;2022-08-06T07:35:11;2.38;;;0.60;;
29432;SDS011;16405;53.964;13.448;2022-08-06T07:37:49;1.65;;;0.50;;
29432;SDS011;16405;53.964;13.448;2022-08-06T07:40:25;4.45;;;0.60;;
29432;SDS011;16405;53.964;13.448;2022-08-06T07:43:12;3.97;;;0.60;;
29432;SDS011;16405;53.964;13.448;2022-08-06T07:48:16;4.57;;;0.63;;
29432;SDS011;16405;53.964;13.448;2022-08-06T07:50:49;4.78;;;0.90;;
29432;SDS011;16405;53.964;13.448;2022-08-06T07:53:16;4.97;;;0.70;;
29432;SDS011;16405;53.964;13.448;2022-08-06T07:55:44;4.35;;;0.80;;
29432;SDS011;16405;53.964;13.448;2022-08-06T07:58:12;4.35;;;0.60;;
29432;SDS011;16405;53.964;13.448;2022-08-06T08:00:43;6.65;;;0.60;;
29432;SDS011;16405;53.964;13.448;2022-08-06T08:03:09;9.63;;;0.73;;
29432;SDS011;16405;53.964;13.448;2022-08-06T08:05:55;2.42;;;0.50;;
29432;SDS011;16405;53.964;13.448;2022-08-06T08:08:40;5.70;;;1.08;;
29432;SDS011;16405;53.964;13.448;2022-08-06T08:11:14;5.20;;;0.43;;
29432;SDS011;16405;53.964;13.448;2022-08-06T08:13:42;6.82;;;0.70;;
29432;SDS011;16405;53.964;13.448;2022-08-06T08:16:13;3.63;;;0.50;;
29432;SDS011;16405;53.964;13.448;2022-08-06T08:18:40;5.50;;;0.63;;
29432;SDS011;16405;53.964;13.448;2022-08-06T08:21:06;1.35;;;0.30;;
29432;SDS011;16405;53.964;13.448;2022-08-06T08:23:34;3.10;;;0.50;;
29432;SDS011;16405;53.964;13.448;2022-08-06T08:26:03;5.40;;;0.50;;
29432;SDS011;16405;53.964;13.448;2022-08-06T08:28:30;2.70;;;0.50;;
29432;SDS011;16405;53.964;13.448;2022-08-06T08:30:56;1.70;;;0.45;;
29432;SDS011;16405;53.964;13.448;2022-08-06T08:33:26;7.97;;;0.68;;
29432;SDS011;16405;53.964;13.448;2022-08-06T08:36:01;3.97;;;0.50;;
29432;SDS011;16405;53.964;13.448;2022-08-06T08:38:28;2.85;;;0.65;;
29432;SDS011;16405;53.964;13.448;2022-08-06T08:41:03;8.02;;;0.70;;
29432;SDS011;16405;53.964;13.448;2022-08-06T08:43:46;8.65;;;0.70;;
29432;SDS011;16405;53.964;13.448;2022-08-06T08:46:20;14.45;;;1.23;;
29432;SDS011;16405;53.964;13.448;2022-08-06T08:48:47;7.40;;;0.70;;
29432;SDS011;16405;53.964;13.448;2022-08-06T08:51:13;8.43;;;0.75;;
29432;SDS011;16405;53.964;13.448;2022-08-06T08:53:44;5.75;;;0.70;;
29432;SDS011;16405;53.964;13.448;2022-08-06T08:56:17;8.25;;;0.60;;
29432;SDS011;16405;53.964;13.448;2022-08-06T08:58:43;7.97;;;0.70;;
29432;SDS011;16405;53.964;13.448;2022-08-06T09:01:10;9.40;;;0.55;;
29432;SDS011;16405;53.964;13.448;2022-08-06T09:03:40;7.10;;;0.73;;
29432;SDS011;16405;53.964;13.448;2022-08-06T09:06:07;11.98;;;1.08;;
29432;SDS011;16405;53.964;13.448;2022-08-06T09:08:34;13.05;;;0.77;;
29432;SDS011;16405;53.964;13.448;2022-08-06T09:11:01;8.85;;;0.70;;
29432;SDS011;16405;53.964;13.448;2022-08-06T09:13:33;3.55;;;0.60;;
29432;SDS011;16405;53.964;13.448;2022-08-06T09:16:02;2.58;;;0.60;;
29432;SDS011;16405;53.964;13.448;2022-08-06T09:18:38;4.03;;;0.68;;
29432;SDS011;16405;53.964;13.448;2022-08-06T09:21:04;1.08;;;0.35;;
29432;SDS011;16405;53.964;13.448;2022-08-06T09:23:30;12.10;;;0.70;;
29432;SDS011;16405;53.964;13.448;2022-08-06T09:26:03;2.00;;;0.50;;
29432;SDS011;16405;53.964;13.448;2022-08-06T09:28:32;5.45;;;0.40;;
29432;SDS011;16405;53.964;13.448;2022-08-06T09:31:13;5.18;;;0.60;;
29432;SDS011;16405;53.964;13.448;2022-08-06T09:33:40;4.47;;;0.57;;
29432;SDS011;16405;53.964;13.448;2022-08-06T09:36:47;6.85;;;0.65;;
29432;SDS011;16405;53.964;13.448;2022-08-06T09:39:15;5.53;;;0.70;;
29432;SDS011;16405;53.964;13.448;2022-08-06T09:41:45;3.15;;;0.60;;
29432;SDS011;16405;53.964;13.448;2022-08-06T09:44:16;2.65;;;0.60;;
29432;SDS011;16405;53.964;13.448;2022-08-06T09:49:18;1.73;;;0.40;;
29432;SDS011;16405;53.964;13.448;2022-08-06T09:54:11;3.22;;;0.63;;
29432;SDS011;16405;53.964;13.448;2022-08-06T09:56:43;4.13;;;0.73;;
29432;SDS011;16405;53.964;13.448;2022-08-06T09:59:13;4.63;;;0.70;;
29432;SDS011;16405;53.964;13.448;2022-08-06T10:01:43;4.13;;;0.70;;
29432;SDS011;16405;53.964;13.448;2022-08-06T10:04:28;2.80;;;0.60;;
29432;SDS011;16405;53.964;13.448;2022-08-06T10:06:58;1.70;;;0.50;;
29432;SDS011;16405;53.964;13.448;2022-08-06T10:09:28;4.57;;;0.65;;
29432;SDS011;16405;53.964;13.448;2022-08-06T10:12:22;4.50;;;0.63;;
29432;SDS011;16405;53.964;13.448;2022-08-06T10:14:59;3.15;;;0.50;;
29432;SDS011;16405;53.964;13.448;2022-08-06T10:17:25;3.33;;;0.90;;
29432;SDS011;16405;53.964;13.448;2022-08-06T10:20:13;3.85;;;0.60;;
29432;SDS011;16405;53.964;13.448;2022-08-06T10:22:53;2.00;;;0.80;;
29432;SDS011;16405;53.964;13.448;2022-08-06T10:25:22;3.42;;;0.80;;
29432;SDS011;16405;53.964;13.448;2022-08-06T10:27:54;4.18;;;0.93;;
29432;SDS011;16405;53.964;13.448;2022-08-06T10:41:38;14.30;;;1.08;;
29432;SDS011;16405;53.964;13.448;2022-08-06T10:44:32;5.65;;;0.90;;
29432;SDS011;16405;53.964;13.448;2022-08-06T10:50:26;4.40;;;0.80;;
29432;SDS011;16405;53.964;13.448;2022-08-06T10:53:20;1.90;;;0.50;;
29432;SDS011;16405;53.964;13.448;2022-08-06T10:56:15;2.35;;;0.73;;
29432;SDS011;16405;53.964;13.448;2022-08-06T10:58:53;3.95;;;0.80;;
29432;SDS011;16405;53.964;13.448;2022-08-06T11:04:42;0.90;;;0.60;;
29432;SDS011;16405;53.964;13.448;2022-08-06T11:10:37;3.22;;;0.75;;
29432;SDS011;16405;53.964;13.448;2022-08-06T11:13:28;4.93;;;0.82;;
29432;SDS011;16405;53.964;13.448;2022-08-06T11:16:26;8.98;;;0.77;;
29432;SDS011;16405;53.964;13.448;2022-08-06T11:21:45;3.45;;;0.73;;
29432;SDS011;16405;53.964;13.448;2022-08-06T11:24:15;1.27;;;0.60;;
29432;SDS011;16405;53.964;13.448;2022-08-06T11:26:44;3.85;;;0.80;;
29432;SDS011;16405;53.964;13.448;2022-08-06T11:29:11;2.50;;;0.90;;
29432;SDS011;16405;53.964;13.448;2022-08-06T11:31:46;3.45;;;0.70;;
29432;SDS011;16405;53.964;13.448;2022-08-06T11:34:20;4.05;;;0.73;;
29432;SDS011;16405;53.964;13.448;2022-08-06T11:36:47;3.30;;;0.60;;
29432;SDS011;16405;53.964;13.448;2022-08-06T11:39:24;3.08;;;0.60;;
29432;SDS011;16405;53.964;13.448;2022-08-06T11:41:58;1.98;;;0.52;;
29432;SDS011;16405;53.964;13.448;2022-08-06T11:44:31;3.85;;;0.77;;
29432;SDS011;16405;53.964;13.448;2022-08-06T11:47:19;4.70;;;0.73;;
29432;SDS011;16405;53.964;13.448;2022-08-06T11:49:57;1.88;;;0.70;;
29432;SDS011;16405;53.964;13.448;2022-08-06T11:55:00;3.72;;;0.68;;
29432;SDS011;16405;53.964;13.448;2022-08-06T11:57:36;5.32;;;0.90;;
29432;SDS011;16405;53.964;13.448;2022-08-06T12:00:09;2.78;;;0.70;;
29432;SDS011;16405;53.964;13.448;2022-08-06T12:07:47;4.60;;;0.75;;
29432;SDS011;16405;53.964;13.448;2022-08-06T12:17:13;1.58;;;0.57;;
29432;SDS011;16405;53.964;13.448;2022-08-06T12:19:46;2.85;;;0.70;;
29432;SDS011;16405;53.964;13.448;2022-08-06T12:22:24;5.28;;;0.75;;
29432;SDS011;16405;53.964;13.448;2022-08-06T12:24:51;4.38;;;0.90;;
29432;SDS011;16405;53.964;13.448;2022-08-06T12:27:33;4.55;;;1.02;;
29432;SDS011;16405;53.964;13.448;2022-08-06T12:30:11;2.15;;;0.55;;
29432;SDS011;16405;53.964;13.448;2022-08-06T12:32:58;4.35;;;0.82;;
29432;SDS011;16405;53.964;13.448;2022-08-06T12:35:26;3.80;;;0.90;;
29432;SDS011;16405;53.964;13.448;2022-08-06T12:38:09;5.75;;;0.90;;
29432;SDS011;16405;53.964;13.448;2022-08-06T12:41:06;5.40;;;1.30;;
29432;SDS011;16405;53.964;13.448;2022-08-06T12:43:34;1.98;;;0.90;;
29432;SDS011;16405;53.964;13.448;2022-08-06T12:46:03;14.93;;;1.23;;
29432;SDS011;16405;53.964;13.448;2022-08-06T12:48:32;4.55;;;1.33;;
29432;SDS011;16405;53.964;13.448;2022-08-06T12:51:10;6.88;;;1.00;;
29432;SDS011;16405;53.964;13.448;2022-08-06T12:53:53;4.53;;;1.17;;
29432;SDS011;16405;53.964;13.448;2022-08-06T12:56:28;3.88;;;1.13;;
29432;SDS011;16405;53.964;13.448;2022-08-06T12:58:56;2.92;;;1.00;;
29432;SDS011;16405;53.964;13.448;2022-08-06T13:01:26;3.03;;;1.30;;
29432;SDS011;16405;53.964;13.448;2022-08-06T13:03:57;3.45;;;1.20;;
29432;SDS011;16405;53.964;13.448;2022-08-06T13:06:25;1.95;;;1.08;;
29432;SDS011;16405;53.964;13.448;2022-08-06T13:08:55;6.18;;;1.15;;
29432;SDS011;16405;53.964;13.448;2022-08-06T13:11:29;1.50;;;1.15;;
29432;SDS011;16405;53.964;13.448;2022-08-06T13:13:57;3.45;;;1.58;;
29432;SDS011;16405;53.964;13.448;2022-08-06T13:16:27;8.20;;;1.67;;
29432;SDS011;16405;53.964;13.448;2022-08-06T13:21:35;3.05;;;1.48;;
29432;SDS011;16405;53.964;13.448;2022-08-06T13:24:02;2.75;;;1.50;;
29432;SDS011;16405;53.964;13.448;2022-08-06T13:26:30;9.23;;;1.98;;
29432;SDS011;16405;53.964;13.448;2022-08-06T13:31:40;5.78;;;1.38;;
29432;SDS011;16405;53.964;13.448;2022-08-06T13:34:09;4.30;;;1.40;;
29432;SDS011;16405;53.964;13.448;2022-08-06T13:36:42;6.63;;;1.65;;
29432;SDS011;16405;53.964;13.448;2022-08-06T13:42:28;3.20;;;1.42;;
29432;SDS011;16405;53.964;13.448;2022-08-06T13:44:50;2.75;;;1.30;;
29432;SDS011;16405;53.964;13.448;2022-08-06T13:47:25;5.07;;;1.13;;
29432;SDS011;16405;53.964;13.448;2022-08-06T13:49:53;2.90;;;1.20;;
29432;SDS011;16405;53.964;13.448;2022-08-06T13:52:26;2.88;;;0.98;;
29432;SDS011;16405;53.964;13.448;2022-08-06T13:54:55;5.22;;;1.20;;
29432;SDS011;16405;53.964;13.448;2022-08-06T13:57:22;5.82;;;1.48;;
29432;SDS011;16405;53.964;13.448;2022-08-06T13:59:48;5.10;;;1.42;;
29432;SDS011;16405;53.964;13.448;2022-08-06T14:02:13;2.17;;;1.13;;
29432;SDS011;16405;53.964;13.448;2022-08-06T14:04:41;1.25;;;0.98;;
29432;SDS011;16405;53.964;13.448;2022-08-06T14:07:06;3.35;;;1.10;;
29432;SDS011;16405;53.964;13.448;2022-08-06T14:09:32;3.13;;;1.00;;
29432;SDS011;16405;53.964;13.448;2022-08-06T14:14:28;3.28;;;1.10;;
29432;SDS011;16405;53.964;13.448;2022-08-06T14:16:55;3.22;;;1.20;;
29432;SDS011;16405;53.964;13.448;2022-08-06T14:19:24;4.35;;;1.00;;
29432;SDS011;16405;53.964;13.448;2022-08-06T14:21:51;3.25;;;1.02;;
29432;SDS011;16405;53.964;13.448;2022-08-06T14:24:17;2.58;;;1.20;;
29432;SDS011;16405;53.964;13.448;2022-08-06T14:26:43;3.58;;;1.38;;
29432;SDS011;16405;53.964;13.448;2022-08-06T14:29:11;5.18;;;1.40;;
29432;SDS011;16405;53.964;13.448;2022-08-06T14:31:37;3.83;;;1.50;;
29432;SDS011;16405;53.964;13.448;2022-08-06T14:34:03;5.53;;;1.23;;
29432;SDS011;16405;53.964;13.448;2022-08-06T14:36:30;4.95;;;1.08;;
29432;SDS011;16405;53.964;13.448;2022-08-06T14:38:56;2.70;;;1.05;;
29432;SDS011;16405;53.964;13.448;2022-08-06T14:41:25;2.17;;;1.30;;
29432;SDS011;16405;53.964;13.448;2022-08-06T14:44:10;5.47;;;1.30;;
29432;SDS011;16405;53.964;13.448;2022-08-06T14:46:55;5.88;;;1.23;;
29432;SDS011;16405;53.964;13.448;2022-08-06T14:49:21;6.20;;;1.48;;
29432;SDS011;16405;53.964;13.448;2022-08-06T14:51:52;2.67;;;1.20;;
29432;SDS011;16405;53.964;13.448;2022-08-06T14:54:18;4.15;;;1.40;;
29432;SDS011;16405;53.964;13.448;2022-08-06T14:56:44;6.32;;;1.58;;
29432;SDS011;16405;53.964;13.448;2022-08-06T14:59:10;2.33;;;1.20;;
29432;SDS011;16405;53.964;13.448;2022-08-06T15:01:36;3.38;;;1.27;;
29432;SDS011;16405;53.964;13.448;2022-08-06T15:04:07;6.63;;;1.50;;
29432;SDS011;16405;53.964;13.448;2022-08-06T15:06:33;3.78;;;1.30;;
29432;SDS011;16405;53.964;13.448;2022-08-06T15:08:58;5.45;;;1.38;;
29432;SDS011;16405;53.964;13.448;2022-08-06T15:13:50;2.72;;;1.40;;
29432;SDS011;16405;53.964;13.448;2022-08-06T15:18:51;4.82;;;1.88;;
29432;SDS011;16405;53.964;13.448;2022-08-06T15:21:18;3.75;;;1.73;;
29432;SDS011;16405;53.964;13.448;2022-08-06T15:23:44;2.47;;;1.48;;
29432;SDS011;16405;53.964;13.448;2022-08-06T15:26:14;3.92;;;1.77;;
29432;SDS011;16405;53.964;13.448;2022-08-06T15:28:40;5.75;;;1.90;;
29432;SDS011;16405;53.964;13.448;2022-08-06T15:31:06;5.00;;;1.90;;
29432;SDS011;16405;53.964;13.448;2022-08-06T15:33:32;3.58;;;1.48;;
29432;SDS011;16405;53.964;13.448;2022-08-06T15:35:59;5.32;;;2.00;;
29432;SDS011;16405;53.964;13.448;2022-08-06T15:38:26;4.15;;;2.13;;
29432;SDS011;16405;53.964;13.448;2022-08-06T15:41:00;3.58;;;1.95;;
29432;SDS011;16405;53.964;13.448;2022-08-06T15:43:26;2.50;;;1.55;;
29432;SDS011;16405;53.964;13.448;2022-08-06T15:45:53;4.13;;;1.90;;
29432;SDS011;16405;53.964;13.448;2022-08-06T15:48:19;6.15;;;1.63;;
29432;SDS011;16405;53.964;13.448;2022-08-06T15:50:49;6.15;;;2.20;;
29432;SDS011;16405;53.964;13.448;2022-08-06T15:53:16;7.40;;;2.55;;
29432;SDS011;16405;53.964;13.448;2022-08-06T15:55:42;5.55;;;2.17;;
29432;SDS011;16405;53.964;13.448;2022-08-06T15:58:08;7.05;;;2.45;;
29432;SDS011;16405;53.964;13.448;2022-08-06T16:00:38;6.18;;;2.20;;
29432;SDS011;16405;53.964;13.448;2022-08-06T16:03:06;4.95;;;2.17;;
29432;SDS011;16405;53.964;13.448;2022-08-06T16:05:35;6.55;;;2.55;;
29432;SDS011;16405;53.964;13.448;2022-08-06T16:08:09;7.60;;;2.50;;
29432;SDS011;16405;53.964;13.448;2022-08-06T16:10:41;3.90;;;2.22;;
29432;SDS011;16405;53.964;13.448;2022-08-06T16:13:14;7.50;;;2.30;;
29432;SDS011;16405;53.964;13.448;2022-08-06T16:15:48;6.18;;;2.45;;
29432;SDS011;16405;53.964;13.448;2022-08-06T16:18:16;8.23;;;2.75;;
29432;SDS011;16405;53.964;13.448;2022-08-06T16:20:46;8.93;;;2.53;;
29432;SDS011;16405;53.964;13.448;2022-08-06T16:23:14;5.70;;;2.63;;
29432;SDS011;16405;53.964;13.448;2022-08-06T16:25:42;6.53;;;2.85;;
29432;SDS011;16405;53.964;13.448;2022-08-06T16:28:09;5.32;;;2.40;;
29432;SDS011;16405;53.964;13.448;2022-08-06T16:30:36;7.07;;;2.80;;
29432;SDS011;16405;53.964;13.448;2022-08-06T16:33:02;7.10;;;2.80;;
29432;SDS011;16405;53.964;13.448;2022-08-06T16:35:31;13.65;;;2.83;;
29432;SDS011;16405;53.964;13.448;2022-08-06T16:37:58;4.70;;;2.80;;
29432;SDS011;16405;53.964;13.448;2022-08-06T16:40:25;4.95;;;2.70;;
29432;SDS011;16405;53.964;13.448;2022-08-06T16:42:52;8.55;;;3.17;;
29432;SDS011;16405;53.964;13.448;2022-08-06T16:45:20;6.28;;;2.95;;
29432;SDS011;16405;53.964;13.448;2022-08-06T16:47:51;6.47;;;2.90;;
29432;SDS011;16405;53.964;13.448;2022-08-06T16:50:19;6.47;;;2.95;;
29432;SDS011;16405;53.964;13.448;2022-08-06T16:52:46;5.53;;;3.00;;